Sign in

Advertising

Advertising

Info

Aviation weather - KDAB

METAR KDAB 010253Z 21007KT 10SM FEW041 BKN060 BKN150 BKN250 26/22 A3000 RMK AO2 SLP158 T02610217 51020

TAF KDAB 312343Z 0100/0124 19006KT P6SM FEW023 SCT150 BKN250 FM011400 21012G17KT P6SM VCSH SCT020 BKN120 FM011800 22010G15KT P6SM VCTS SCT030CB BKN060 BKN150

Aviation weather from ADDS. Re-check weather before flight.

-